createdAt,value
2018-06-25T00:01:57.004Z,7.17
2018-06-25T00:04:25.760Z,6.93
2018-06-25T00:06:54.435Z,6.73
2018-06-25T00:09:23.022Z,5.30
2018-06-25T00:11:52.131Z,5.90
2018-06-25T00:14:21.527Z,6.20
2018-06-25T00:16:50.121Z,5.70
2018-06-25T00:19:18.768Z,5.00
2018-06-25T00:21:47.379Z,4.90
2018-06-25T00:24:15.963Z,4.67
2018-06-25T00:26:44.645Z,4.73
2018-06-25T00:29:13.340Z,4.20
2018-06-25T00:31:42.181Z,5.40
2018-06-25T00:34:10.812Z,4.90
2018-06-25T00:36:39.561Z,4.23
2018-06-25T00:39:11.283Z,4.27
2018-06-25T00:41:40.804Z,4.70
2018-06-25T00:44:10.508Z,4.63
2018-06-25T00:46:39.184Z,3.60
2018-06-25T00:49:07.937Z,3.80
2018-06-25T00:51:36.667Z,4.60
2018-06-25T00:54:05.850Z,3.20
2018-06-25T00:56:34.672Z,3.80
2018-06-25T00:59:14.297Z,4.93
2018-06-25T01:01:43.292Z,4.90
2018-06-25T01:04:12.195Z,3.83
2018-06-25T01:06:40.727Z,3.63
2018-06-25T01:09:11.302Z,4.20
2018-06-25T01:11:39.902Z,3.40
2018-06-25T01:14:08.792Z,3.93
2018-06-25T01:16:37.644Z,3.60
2018-06-25T01:19:06.336Z,3.83
2018-06-25T01:21:34.900Z,3.30
2018-06-25T01:24:03.893Z,3.17
2018-06-25T01:26:33.198Z,3.40
2018-06-25T01:29:01.820Z,3.30
2018-06-25T01:31:30.515Z,3.30
2018-06-25T01:33:59.265Z,3.80
2018-06-25T01:36:27.912Z,4.17
2018-06-25T01:38:56.648Z,4.47
2018-06-25T01:41:25.299Z,3.57
2018-06-25T01:43:53.884Z,4.10
2018-06-25T01:46:22.480Z,3.80
2018-06-25T01:48:51.199Z,3.63
2018-06-25T01:51:19.927Z,2.97
2018-06-25T01:53:48.632Z,2.97
2018-06-25T01:56:17.311Z,3.23
2018-06-25T01:58:45.979Z,3.60
2018-06-25T02:01:14.572Z,3.60
2018-06-25T02:03:43.191Z,4.10
2018-06-25T02:06:11.868Z,3.77
2018-06-25T02:08:40.572Z,3.17
2018-06-25T02:11:09.236Z,3.37
2018-06-25T02:13:38.012Z,3.40
2018-06-25T02:16:07.352Z,3.23
2018-06-25T02:18:36.223Z,3.40
2018-06-25T02:21:04.879Z,3.23
2018-06-25T02:23:33.795Z,2.70
2018-06-25T02:26:02.560Z,2.83
2018-06-25T02:28:31.394Z,3.03
2018-06-25T02:31:00.100Z,2.93
2018-06-25T02:33:28.728Z,2.97
2018-06-25T02:35:57.333Z,3.00
2018-06-25T02:38:26.572Z,3.10
2018-06-25T02:40:55.322Z,2.73
2018-06-25T02:43:24.065Z,3.50
2018-06-25T02:45:52.684Z,2.90
2018-06-25T02:48:21.268Z,4.00
2018-06-25T02:50:50.261Z,3.80
2018-06-25T02:53:19.080Z,3.43
2018-06-25T02:55:47.732Z,2.93
2018-06-25T02:58:16.288Z,3.03
2018-06-25T03:00:44.996Z,2.93
2018-06-25T03:03:13.567Z,2.73
2018-06-25T03:05:42.418Z,3.33
2018-06-25T03:08:11.035Z,3.50
2018-06-25T03:10:39.628Z,3.30
2018-06-25T03:13:08.336Z,3.70
2018-06-25T03:15:37.116Z,3.17
2018-06-25T03:18:05.706Z,3.90
2018-06-25T03:20:34.374Z,3.33
2018-06-25T03:23:03.753Z,3.73
2018-06-25T03:25:32.467Z,3.10
2018-06-25T03:28:01.145Z,3.80
2018-06-25T03:30:29.956Z,4.77
2018-06-25T03:32:58.619Z,4.23
2018-06-25T03:35:27.329Z,3.73
2018-06-25T03:37:55.868Z,3.67
2018-06-25T03:40:24.458Z,4.40
2018-06-25T03:42:53.510Z,3.40
2018-06-25T03:45:22.151Z,4.57
2018-06-25T03:47:50.720Z,3.70
2018-06-25T03:50:19.284Z,4.07
2018-06-25T03:52:47.900Z,3.93
2018-06-25T03:55:16.727Z,4.00
2018-06-25T03:57:45.367Z,4.10
2018-06-25T04:00:14.412Z,3.43
2018-06-25T04:02:43.068Z,3.47
2018-06-25T04:05:11.778Z,3.23
2018-06-25T04:07:40.578Z,3.43
2018-06-25T04:10:09.232Z,2.97
2018-06-25T04:12:38.132Z,2.90
2018-06-25T04:15:06.964Z,3.80
2018-06-25T04:17:35.708Z,3.87
2018-06-25T04:20:04.712Z,3.80
2018-06-25T04:22:33.352Z,4.40
2018-06-25T04:25:01.892Z,3.43
2018-06-25T04:27:30.876Z,3.60
2018-06-25T04:29:59.812Z,3.47
2018-06-25T04:32:28.925Z,3.70
2018-06-25T04:34:57.924Z,3.50
2018-06-25T04:37:26.492Z,4.43
2018-06-25T04:39:55.209Z,3.90
2018-06-25T04:42:23.860Z,3.40
2018-06-25T04:44:52.553Z,3.90
2018-06-25T04:47:21.125Z,3.10
2018-06-25T04:49:49.736Z,3.90
2018-06-25T04:52:18.498Z,2.80
2018-06-25T04:54:47.513Z,4.00
2018-06-25T04:57:16.176Z,3.93
2018-06-25T04:59:44.868Z,3.20
2018-06-25T05:02:13.556Z,3.70
2018-06-25T05:04:42.267Z,3.20
2018-06-25T05:07:10.959Z,3.20
2018-06-25T05:09:39.543Z,2.90
2018-06-25T05:12:08.348Z,2.97
2018-06-25T05:14:36.917Z,3.73
2018-06-25T05:17:05.648Z,3.20
2018-06-25T05:19:34.248Z,3.70
2018-06-25T05:22:03.199Z,3.90
2018-06-25T05:24:31.983Z,3.70
2018-06-25T05:27:00.627Z,3.27
2018-06-25T05:29:29.263Z,3.30
2018-06-25T05:31:58.416Z,3.33
2018-06-25T05:34:27.039Z,3.50
2018-06-25T05:36:56.107Z,3.10
2018-06-25T05:39:24.773Z,3.33
2018-06-25T05:41:53.536Z,2.93
2018-06-25T05:44:22.268Z,3.20
2018-06-25T05:46:51.089Z,3.20
2018-06-25T05:49:19.743Z,2.80
2018-06-25T05:51:48.384Z,2.87
2018-06-25T05:54:17.059Z,4.03
2018-06-25T05:56:45.797Z,2.77
2018-06-25T05:59:14.740Z,3.07
2018-06-25T06:01:45.493Z,3.17
2018-06-25T06:04:18.411Z,3.70
2018-06-25T06:06:47.079Z,3.60
2018-06-25T06:09:15.771Z,2.40
2018-06-25T06:11:44.787Z,3.00
2018-06-25T06:14:13.495Z,2.73
2018-06-25T06:16:43.350Z,3.13
2018-06-25T06:19:12.821Z,2.63
2018-06-25T06:21:42.255Z,2.90
2018-06-25T06:24:11.947Z,2.40
2018-06-25T06:26:41.786Z,2.97
2018-06-25T06:29:11.321Z,2.40
2018-06-25T06:31:40.811Z,2.60
2018-06-25T06:34:10.031Z,3.30
2018-06-25T06:36:39.352Z,2.63
2018-06-25T06:39:13.319Z,2.60
2018-06-25T06:41:43.404Z,2.77
2018-06-25T06:44:12.796Z,2.97
2018-06-25T06:46:41.524Z,3.30
2018-06-25T06:49:11.117Z,2.37
2018-06-25T06:51:40.408Z,2.33
2018-06-25T06:54:09.092Z,2.40
2018-06-25T06:56:39.122Z,2.30
2018-06-25T06:59:10.576Z,3.00
2018-06-25T07:01:40.716Z,2.07
2018-06-25T07:04:10.487Z,2.20
2018-06-25T07:06:39.679Z,2.40
2018-06-25T07:09:11.471Z,2.97
2018-06-25T07:11:41.668Z,2.27
2018-06-25T07:14:12.224Z,3.00
2018-06-25T07:16:42.552Z,2.97
2018-06-25T07:19:12.242Z,3.00
2018-06-25T07:21:40.928Z,3.63
2018-06-25T07:24:09.584Z,3.40
2018-06-25T07:26:38.283Z,3.67
2018-06-25T07:29:07.076Z,3.10
2018-06-25T07:31:35.653Z,3.50
2018-06-25T07:34:04.693Z,2.90
2018-06-25T07:36:33.788Z,2.83
2018-06-25T07:39:02.381Z,3.07
2018-06-25T07:41:31.363Z,2.60
2018-06-25T07:44:00.070Z,2.90
2018-06-25T07:46:28.799Z,4.20
2018-06-25T07:48:57.568Z,2.70
2018-06-25T07:51:26.174Z,2.70
2018-06-25T07:53:55.108Z,2.90
2018-06-25T07:56:23.800Z,3.10
2018-06-25T07:58:52.431Z,2.53
2018-06-25T08:01:21.178Z,2.30
2018-06-25T08:03:49.861Z,3.17
2018-06-25T08:06:18.536Z,2.70
2018-06-25T08:08:47.483Z,3.30
2018-06-25T08:11:16.112Z,2.70
2018-06-25T08:13:44.856Z,2.57
2018-06-25T08:16:13.468Z,2.93
2018-06-25T08:18:42.377Z,3.10
2018-06-25T08:21:11.125Z,3.23
2018-06-25T08:23:40.232Z,2.80
2018-06-25T08:26:09.051Z,2.87
2018-06-25T08:28:37.704Z,2.90
2018-06-25T08:31:06.409Z,2.60
2018-06-25T08:33:34.956Z,2.83
2018-06-25T08:36:03.659Z,2.60
2018-06-25T08:38:32.303Z,3.23
2018-06-25T08:41:00.864Z,2.50
2018-06-25T08:43:29.542Z,3.03
2018-06-25T08:45:58.197Z,3.23
2018-06-25T08:48:26.824Z,2.40
2018-06-25T08:50:55.515Z,3.33
2018-06-25T08:53:24.664Z,3.10
2018-06-25T08:55:53.289Z,4.03
2018-06-25T08:58:21.912Z,3.47
2018-06-25T09:00:50.564Z,3.20
2018-06-25T09:03:19.449Z,3.60
2018-06-25T09:05:48.052Z,2.70
2018-06-25T09:08:17.838Z,2.43
2018-06-25T09:10:46.462Z,2.63
2018-06-25T09:13:15.145Z,3.17
2018-06-25T09:15:43.861Z,2.40
2018-06-25T09:18:12.539Z,2.87
2018-06-25T09:20:41.252Z,2.93
2018-06-25T09:23:09.952Z,2.40
2018-06-25T09:25:38.644Z,2.63
2018-06-25T09:28:08.049Z,2.30
2018-06-25T09:30:36.704Z,2.27
2018-06-25T09:33:05.392Z,1.57
2018-06-25T09:35:34.113Z,2.30
2018-06-25T09:38:02.898Z,2.37
2018-06-25T09:40:31.639Z,1.80
2018-06-25T09:43:00.193Z,1.90
2018-06-25T09:45:28.816Z,1.90
2018-06-25T09:47:57.541Z,1.77
2018-06-25T09:50:26.167Z,2.00
2018-06-25T09:52:54.981Z,2.20
2018-06-25T09:55:23.688Z,2.40
2018-06-25T09:57:52.540Z,1.90
2018-06-25T10:00:26.385Z,3.20
2018-06-25T10:02:55.210Z,2.13
2018-06-25T10:05:24.328Z,2.50
2018-06-25T10:07:53.017Z,1.70
2018-06-25T10:10:21.904Z,2.27
2018-06-25T10:12:51.299Z,1.40
2018-06-25T10:15:20.024Z,1.60
2018-06-25T10:17:48.932Z,3.60
2018-06-25T10:20:18.133Z,2.00
2018-06-25T10:22:46.771Z,1.80
2018-06-25T10:25:15.305Z,1.93
2018-06-25T10:27:43.916Z,1.63
2018-06-25T10:30:12.503Z,1.50
2018-06-25T10:32:41.151Z,1.40
2018-06-25T10:35:09.855Z,0.97
2018-06-25T10:37:38.679Z,1.50
2018-06-25T10:40:07.352Z,1.10
2018-06-25T10:42:36.185Z,1.07
2018-06-25T10:45:04.896Z,1.30
2018-06-25T10:47:33.539Z,1.00
2018-06-25T10:50:02.362Z,2.93
2018-06-25T10:52:31.687Z,0.87
2018-06-25T10:55:00.284Z,0.67
2018-06-25T10:57:29.275Z,0.60
2018-06-25T10:59:58.047Z,0.50
2018-06-25T11:02:26.641Z,0.60
2018-06-25T11:04:55.577Z,0.67
2018-06-25T11:07:24.318Z,0.70
2018-06-25T11:09:53.014Z,1.47
2018-06-25T11:12:21.968Z,1.50
2018-06-25T11:14:50.575Z,1.20
2018-06-25T11:17:19.376Z,0.73
2018-06-25T11:19:48.429Z,0.80
2018-06-25T11:22:17.232Z,0.80
2018-06-25T11:24:45.868Z,0.80
2018-06-25T11:27:14.568Z,0.97
2018-06-25T11:29:43.271Z,0.90
2018-06-25T11:32:11.966Z,0.90
2018-06-25T11:34:40.645Z,1.10
2018-06-25T11:37:09.368Z,0.70
2018-06-25T11:39:38.055Z,1.60
2018-06-25T11:42:07.095Z,1.07
2018-06-25T11:44:36.245Z,1.17
2018-06-25T11:47:04.891Z,1.20
2018-06-25T11:49:33.934Z,0.90
2018-06-25T11:52:02.702Z,0.90
2018-06-25T11:54:31.568Z,0.80
2018-06-25T11:57:00.252Z,0.97
2018-06-25T11:59:28.883Z,0.70
2018-06-25T12:01:57.654Z,0.93
2018-06-25T12:04:26.352Z,0.73
2018-06-25T12:06:55.956Z,0.80
2018-06-25T12:09:24.764Z,0.70
2018-06-25T12:11:53.680Z,1.00
2018-06-25T12:14:22.351Z,0.70
2018-06-25T12:16:51.547Z,0.60
2018-06-25T12:19:22.425Z,0.80
2018-06-25T12:21:51.151Z,0.80
2018-06-25T12:24:19.899Z,0.80
2018-06-25T12:26:48.564Z,1.10
2018-06-25T12:29:17.223Z,1.50
2018-06-25T12:31:46.100Z,1.13
2018-06-25T12:34:15.212Z,1.70
2018-06-25T12:36:44.000Z,1.77
2018-06-25T12:39:12.787Z,1.50
2018-06-25T12:41:41.575Z,2.13
2018-06-25T12:44:10.692Z,2.20
2018-06-25T12:46:39.876Z,1.93
2018-06-25T12:49:08.548Z,2.07
2018-06-25T12:51:37.380Z,2.10
2018-06-25T12:54:06.173Z,1.90
2018-06-25T12:56:34.841Z,1.60
2018-06-25T12:59:03.541Z,1.97
2018-06-25T13:01:32.344Z,1.20
2018-06-25T13:04:01.529Z,0.97
2018-06-25T13:06:30.148Z,1.33
2018-06-25T13:08:59.009Z,1.30
2018-06-25T13:11:27.800Z,1.07
2018-06-25T13:13:56.608Z,1.00
2018-06-25T13:16:25.588Z,1.10
2018-06-25T13:18:54.187Z,1.63
2018-06-25T13:21:23.015Z,1.63
2018-06-25T13:23:51.810Z,1.80
2018-06-25T13:26:20.920Z,1.40
2018-06-25T13:28:50.266Z,1.53
2018-06-25T13:31:20.204Z,1.30
2018-06-25T13:33:49.777Z,1.60
2018-06-25T13:36:19.468Z,1.47
2018-06-25T13:38:48.772Z,1.27
2018-06-25T13:41:18.228Z,1.50
2018-06-25T13:43:47.561Z,1.60
2018-06-25T13:46:16.526Z,1.40
2018-06-25T13:48:45.171Z,1.10
2018-06-25T13:51:13.867Z,1.00
2018-06-25T13:53:43.012Z,1.00
2018-06-25T13:56:11.764Z,1.80
2018-06-25T13:58:40.488Z,1.37
2018-06-25T14:01:09.144Z,1.30
2018-06-25T14:03:38.150Z,1.80
2018-06-25T14:06:06.839Z,1.43
2018-06-25T14:08:35.571Z,1.77
2018-06-25T14:11:04.233Z,1.50
2018-06-25T14:13:32.879Z,1.30
2018-06-25T14:16:01.609Z,1.67
2018-06-25T14:18:30.316Z,1.23
2018-06-25T14:20:59.039Z,1.40
2018-06-25T14:23:28.047Z,1.30
2018-06-25T14:26:02.893Z,1.40
2018-06-25T14:28:32.400Z,1.50
2018-06-25T14:31:06.585Z,1.40
2018-06-25T14:33:43.017Z,1.70
2018-06-25T14:36:12.028Z,1.70
2018-06-25T14:38:40.752Z,1.53
2018-06-25T14:41:09.684Z,1.43
2018-06-25T14:43:38.351Z,1.30
2018-06-25T14:46:06.997Z,1.70
2018-06-25T14:48:35.551Z,1.60
2018-06-25T14:51:04.352Z,1.23
2018-06-25T14:53:33.080Z,1.50
2018-06-25T14:56:01.713Z,1.50
2018-06-25T14:58:30.544Z,1.30
2018-06-25T15:00:59.183Z,2.60
2018-06-25T15:03:27.772Z,1.50
2018-06-25T15:05:56.545Z,1.70
2018-06-25T15:08:25.200Z,2.13
2018-06-25T15:10:54.071Z,1.60
2018-06-25T15:13:22.724Z,1.50
2018-06-25T15:15:51.295Z,2.20
2018-06-25T15:18:20.747Z,2.53
2018-06-25T15:20:49.351Z,2.10
2018-06-25T15:23:18.039Z,2.40
2018-06-25T15:25:46.780Z,3.00
2018-06-25T15:28:15.476Z,2.23
2018-06-25T15:30:44.060Z,2.17
2018-06-25T15:33:13.492Z,2.20
2018-06-25T15:35:42.468Z,2.40
2018-06-25T15:38:11.275Z,2.30
2018-06-25T15:40:39.876Z,2.13
2018-06-25T15:43:08.574Z,2.43
2018-06-25T15:45:37.404Z,2.20
2018-06-25T15:48:06.536Z,2.20
2018-06-25T15:50:35.265Z,1.80
2018-06-25T15:53:04.040Z,2.30
2018-06-25T15:55:32.664Z,2.80
2018-06-25T15:58:01.336Z,2.63
2018-06-25T16:00:30.086Z,2.80
2018-06-25T16:02:58.675Z,2.07
2018-06-25T16:05:27.803Z,2.33
2018-06-25T16:07:56.606Z,1.80
2018-06-25T16:10:25.183Z,2.10
2018-06-25T16:12:54.184Z,2.50
2018-06-25T16:15:22.740Z,2.23
2018-06-25T16:17:51.307Z,2.13
2018-06-25T16:20:19.925Z,1.93
2018-06-25T16:22:48.475Z,2.50
2018-06-25T16:25:17.413Z,2.30
2018-06-25T16:27:46.178Z,2.50
2018-06-25T16:30:14.905Z,2.70
2018-06-25T16:32:43.604Z,2.80
2018-06-25T16:35:12.694Z,2.63
2018-06-25T16:37:41.565Z,3.10
2018-06-25T16:40:10.272Z,2.40
2018-06-25T16:42:39.807Z,2.50
2018-06-25T16:45:08.567Z,2.30
2018-06-25T16:47:37.271Z,2.30
2018-06-25T16:50:06.847Z,2.97
2018-06-25T16:52:35.641Z,2.07
2018-06-25T16:55:04.489Z,2.20
2018-06-25T16:57:33.307Z,2.00
2018-06-25T17:00:02.045Z,2.43
2018-06-25T17:02:31.024Z,2.80
2018-06-25T17:04:59.680Z,2.37
2018-06-25T17:07:28.312Z,2.73
2018-06-25T17:09:57.078Z,2.37
2018-06-25T17:12:25.835Z,2.07
2018-06-25T17:14:54.700Z,2.30
2018-06-25T17:17:23.680Z,2.10
2018-06-25T17:19:52.251Z,2.43
2018-06-25T17:22:20.851Z,2.07
2018-06-25T17:24:49.501Z,1.70
2018-06-25T17:27:18.757Z,2.00
2018-06-25T17:29:47.876Z,2.63
2018-06-25T17:32:16.500Z,2.00
2018-06-25T17:34:45.227Z,2.83
2018-06-25T17:37:13.984Z,1.60
2018-06-25T17:39:42.903Z,2.00
2018-06-25T17:42:11.579Z,1.83
2018-06-25T17:44:40.227Z,1.90
2018-06-25T17:47:08.807Z,1.90
2018-06-25T17:49:37.392Z,2.43
2018-06-25T17:52:06.336Z,2.27
2018-06-25T17:54:35.185Z,2.07
2018-06-25T17:57:03.757Z,1.70
2018-06-25T17:59:32.468Z,1.93
2018-06-25T18:02:01.200Z,2.50
2018-06-25T18:04:30.176Z,1.93
2018-06-25T18:06:58.816Z,2.10
2018-06-25T18:09:27.547Z,1.97
2018-06-25T18:11:56.307Z,1.90
2018-06-25T18:14:25.303Z,1.90
2018-06-25T18:16:54.212Z,2.50
2018-06-25T18:19:22.752Z,2.27
2018-06-25T18:21:51.297Z,2.33
2018-06-25T18:24:19.976Z,2.00
2018-06-25T18:26:48.565Z,2.20
2018-06-25T18:29:17.492Z,1.90
2018-06-25T18:31:46.271Z,2.30
2018-06-25T18:34:15.776Z,3.37
2018-06-25T18:36:44.499Z,2.17
2018-06-25T18:39:14.181Z,2.07
2018-06-25T18:41:43.747Z,1.73
2018-06-25T18:44:12.399Z,2.30
2018-06-25T18:46:41.846Z,2.27
2018-06-25T18:49:10.696Z,2.67
2018-06-25T18:51:39.358Z,2.30
2018-06-25T18:54:08.129Z,2.17
2018-06-25T18:56:36.915Z,2.50
2018-06-25T18:59:05.801Z,2.40
2018-06-25T19:01:34.702Z,2.60
2018-06-25T19:04:03.376Z,2.10
2018-06-25T19:06:32.308Z,2.97
2018-06-25T19:09:01.192Z,2.63
2018-06-25T19:11:30.302Z,2.00
2018-06-25T19:13:59.208Z,2.17
2018-06-25T19:16:27.879Z,1.87
2018-06-25T19:18:56.568Z,2.70
2018-06-25T19:21:25.416Z,2.27
2018-06-25T19:23:54.335Z,3.10
2018-06-25T19:26:23.256Z,2.27
2018-06-25T19:28:52.061Z,2.27
2018-06-25T19:31:21.236Z,2.27
2018-06-25T19:33:49.987Z,2.57
2018-06-25T19:36:18.687Z,2.30
2018-06-25T19:38:47.387Z,3.27
2018-06-25T19:41:16.003Z,2.93
2018-06-25T19:43:44.656Z,2.10
2018-06-25T19:46:13.383Z,2.60
2018-06-25T19:48:41.993Z,2.57
2018-06-25T19:51:12.850Z,2.40
2018-06-25T19:53:45.225Z,2.33
2018-06-25T19:56:15.079Z,2.43
2018-06-25T19:58:44.282Z,2.50
2018-06-25T20:01:13.335Z,2.97
2018-06-25T20:03:42.008Z,3.00
2018-06-25T20:06:10.635Z,2.23
2018-06-25T20:08:39.193Z,2.47
2018-06-25T20:11:07.964Z,2.73
2018-06-25T20:13:36.988Z,2.93
2018-06-25T20:16:06.370Z,2.70
2018-06-25T20:18:34.941Z,2.13
2018-06-25T20:21:03.596Z,2.43
2018-06-25T20:23:32.256Z,1.93
2018-06-25T20:26:01.124Z,2.43
2018-06-25T20:28:29.660Z,2.53
2018-06-25T20:30:58.356Z,2.97
2018-06-25T20:33:26.960Z,2.03
2018-06-25T20:35:55.624Z,2.30
2018-06-25T20:38:24.549Z,2.50
2018-06-25T20:40:53.203Z,2.10
2018-06-25T20:43:22.009Z,3.60
2018-06-25T20:45:50.665Z,2.53
2018-06-25T20:48:19.221Z,1.90
2018-06-25T20:50:47.886Z,2.10
2018-06-25T20:53:16.583Z,2.10
2018-06-25T20:55:45.307Z,1.93
2018-06-25T20:58:13.962Z,2.27
2018-06-25T21:00:42.765Z,1.70
2018-06-25T21:03:15.235Z,2.33
2018-06-25T21:05:43.885Z,1.80
2018-06-25T21:08:12.529Z,2.00
2018-06-25T21:10:41.149Z,2.10
2018-06-25T21:13:09.964Z,2.40
2018-06-25T21:15:38.876Z,2.30
2018-06-25T21:18:07.694Z,1.50
2018-06-25T21:20:36.373Z,2.40
2018-06-25T21:23:05.465Z,2.10
2018-06-25T21:25:34.252Z,1.83
2018-06-25T21:28:02.967Z,1.60
2018-06-25T21:30:31.864Z,1.87
2018-06-25T21:33:00.451Z,1.80
2018-06-25T21:35:29.120Z,2.30
2018-06-25T21:37:58.448Z,2.47
2018-06-25T21:40:31.586Z,2.10
2018-06-25T21:43:00.422Z,2.57
2018-06-25T21:45:29.269Z,3.13
2018-06-25T21:47:57.848Z,2.97
2018-06-25T21:50:26.614Z,2.83
2018-06-25T21:52:55.379Z,3.07
2018-06-25T21:55:24.027Z,2.40
2018-06-25T21:57:52.729Z,2.93
2018-06-25T22:00:21.616Z,3.03
2018-06-25T22:02:51.193Z,4.00
2018-06-25T22:05:19.922Z,3.40
2018-06-25T22:07:48.706Z,2.53
2018-06-25T22:10:18.223Z,3.27
2018-06-25T22:12:46.856Z,2.73
2018-06-25T22:15:15.547Z,2.70
2018-06-25T22:17:44.216Z,2.67
2018-06-25T22:20:12.854Z,3.37
2018-06-25T22:22:41.891Z,3.70
2018-06-25T22:25:10.447Z,2.80
2018-06-25T22:27:39.127Z,2.77
2018-06-25T22:30:07.804Z,3.17
2018-06-25T22:32:36.507Z,2.60
2018-06-25T22:35:05.465Z,2.80
2018-06-25T22:37:34.131Z,2.00
2018-06-25T22:40:02.784Z,2.63
2018-06-25T22:42:33.168Z,2.63
2018-06-25T22:45:01.834Z,2.50
2018-06-25T22:47:30.864Z,2.40
2018-06-25T22:49:59.597Z,2.60
2018-06-25T22:52:28.357Z,2.90
2018-06-25T22:54:57.000Z,1.90
2018-06-25T22:57:25.630Z,2.37
2018-06-25T22:59:54.264Z,2.47
2018-06-25T23:02:23.071Z,2.50
2018-06-25T23:04:51.784Z,2.17
2018-06-25T23:07:20.841Z,2.87
2018-06-25T23:09:49.611Z,3.80
2018-06-25T23:12:18.551Z,4.50
2018-06-25T23:14:47.263Z,3.40
2018-06-25T23:17:16.115Z,3.03
2018-06-25T23:19:44.652Z,3.40
2018-06-25T23:22:13.301Z,3.23
2018-06-25T23:24:41.949Z,3.93
2018-06-25T23:27:13.810Z,3.23
2018-06-25T23:29:42.708Z,3.07
2018-06-25T23:32:11.280Z,3.30
2018-06-25T23:34:40.064Z,3.73
2018-06-25T23:37:09.120Z,3.73
2018-06-25T23:39:37.827Z,3.17
2018-06-25T23:42:06.891Z,2.90
2018-06-25T23:44:35.504Z,3.33
2018-06-25T23:47:04.220Z,4.60
2018-06-25T23:49:32.813Z,3.83
2018-06-25T23:52:01.471Z,4.90
2018-06-25T23:54:30.298Z,4.10
2018-06-25T23:56:58.944Z,4.17
2018-06-25T23:59:27.643Z,3.37
